Time;durP1;ratioP1;P1;durP2;ratioP2;P2;SDS_P1;SDS_P2;PMS_P1;PMS_P2;Temp;Humidity;BMP_temperature;BMP_pressure;BME280_temperature;BME280_humidity;BME280_pressure;Samples;Min_cycle;Max_cycle;Signal;HPM_P1;HPM_P2
2022/02/09 00:03:57;;;;;;;13.85;7.68;;;;;;;-2.10;100.00;98053.09;4996585;28;20109;-65
2022/02/09 00:09:04;;;;;;;12.68;6.53;;;;;;;-2.15;100.00;98048.47;5012360;28;20152;-63
2022/02/09 00:11:37;;;;;;;12.88;6.43;;;;;;;-2.09;100.00;98049.31;5010600;28;20065;-67
2022/02/09 00:14:13;;;;;;;13.70;5.90;;;;;;;-2.07;100.00;98049.91;4999546;28;20145;-63
2022/02/09 00:19:16;;;;;;;15.50;6.07;;;;;;;-2.16;100.00;98051.41;4983595;28;20053;-65
2022/02/09 00:40:32;;;;;;;17.38;7.38;;;;;;;-2.30;100.00;98056.34;5000410;28;20096;-65
2022/02/09 01:51:13;;;;;;;13.85;7.00;;;;;;;-2.74;100.00;98035.69;5000527;28;20506;-65
2022/02/09 01:56:25;;;;;;;11.55;6.30;;;;;;;-3.12;100.00;98031.09;4995107;28;20045;-66
2022/02/09 01:58:51;;;;;;;16.67;6.57;;;;;;;-3.16;100.00;98036.13;4992071;28;20038;-65
2022/02/09 02:01:16;;;;;;;13.77;6.53;;;;;;;-3.07;100.00;98045.38;4973838;28;20125;-65
2022/02/09 02:03:44;;;;;;;13.75;6.53;;;;;;;-3.01;100.00;98045.47;4981992;28;20050;-67
2022/02/09 02:06:12;;;;;;;11.82;6.13;;;;;;;-2.95;100.00;98039.94;4976088;28;20038;-66
2022/02/09 02:08:38;;;;;;;14.93;6.82;;;;;;;-2.89;100.00;98040.81;4996532;28;20053;-66
2022/02/09 02:18:48;;;;;;;14.32;6.68;;;;;;;-2.83;100.00;98036.34;4981697;28;20042;-65
2022/02/09 02:34:53;;;;;;;13.23;6.35;;;;;;;-3.24;100.00;98025.84;4974245;28;20053;-66
2022/02/09 03:21:18;;;;;;;12.50;5.70;;;;;;;-3.68;100.00;98007.72;4965505;28;20053;-65
2022/02/09 03:23:49;;;;;;;7.50;5.18;;;;;;;-3.68;100.00;97997.00;4965074;28;20043;-65
2022/02/09 03:47:54;;;;;;;10.73;5.95;;;;;;;-4.56;100.00;97977.75;4994901;28;20125;-65
2022/02/09 03:55:28;;;;;;;9.05;5.20;;;;;;;-4.20;100.00;97975.75;4989591;28;21017;-65
2022/02/09 03:57:53;;;;;;;10.25;5.95;;;;;;;-4.09;100.00;97982.94;5005058;28;20049;-66
2022/02/09 04:00:22;;;;;;;10.82;6.35;;;;;;;-3.93;100.00;97975.97;4991358;28;20049;-65
2022/02/09 04:02:50;;;;;;;13.98;6.38;;;;;;;-3.75;100.00;97974.94;5000737;28;20078;-65
2022/02/09 04:05:17;;;;;;;8.48;5.50;;;;;;;-3.61;100.00;97979.97;4995866;28;20053;-63
2022/02/09 04:07:43;;;;;;;13.75;6.03;;;;;;;-3.78;100.00;97979.97;4977386;28;20132;-65
2022/02/09 04:10:12;;;;;;;10.55;5.35;;;;;;;-3.91;100.00;97970.38;4984459;28;20531;-66
2022/02/09 04:12:48;;;;;;;14.18;5.45;;;;;;;-3.88;100.00;97970.69;4997327;28;20042;-66
2022/02/09 04:17:59;;;;;;;10.52;5.32;;;;;;;-4.02;100.00;97972.06;5003565;28;20121;-66
2022/02/09 04:37:05;;;;;;;14.65;5.43;;;;;;;-4.15;100.00;97967.03;4976569;28;20054;-67
2022/02/09 04:39:44;;;;;;;9.07;5.00;;;;;;;-4.15;100.00;97967.84;5010965;28;20046;-65
2022/02/09 04:45:04;;;;;;;10.90;5.80;;;;;;;-4.52;100.00;97956.69;4994388;28;20125;-67
2022/02/09 04:47:51;;;;;;;9.57;5.72;;;;;;;-4.68;100.00;97953.75;5008137;28;20044;-67
2022/02/09 04:53:02;;;;;;;17.15;8.15;;;;;;;-4.73;100.00;97950.97;4992685;28;20133;-63
2022/02/09 04:58:01;;;;;;;15.90;7.18;;;;;;;-4.61;100.00;97949.06;5002904;28;20549;-65
2022/02/09 05:27:36;;;;;;;16.13;6.10;;;;;;;-4.74;100.00;97970.72;4986800;28;20764;-67
2022/02/09 05:30:07;;;;;;;11.43;5.43;;;;;;;-4.51;100.00;97966.38;4989396;28;20046;-65
2022/02/09 05:32:33;;;;;;;10.75;5.82;;;;;;;-4.42;100.00;97964.94;4988651;28;20046;-67
2022/02/09 05:34:58;;;;;;;13.02;5.85;;;;;;;-4.40;100.00;97962.81;4999770;28;20107;-67
2022/02/09 05:37:24;;;;;;;10.20;5.85;;;;;;;-4.44;100.00;97967.03;4994078;28;20551;-67
2022/02/09 05:39:49;;;;;;;10.77;6.10;;;;;;;-4.53;100.00;97963.13;4996074;28;20231;-66
2022/02/09 05:42:15;;;;;;;10.70;5.50;;;;;;;-4.66;100.00;97966.88;4994562;28;20077;-66
2022/02/09 05:44:40;;;;;;;11.60;5.68;;;;;;;-4.63;100.00;97966.38;5002061;28;20055;-65
2022/02/09 05:52:30;;;;;;;8.82;5.43;;;;;;;-4.79;100.00;97975.94;4990970;28;20037;-65
2022/02/09 05:59:45;;;;;;;12.43;5.72;;;;;;;-5.06;100.00;97978.31;4997121;28;20061;-65
2022/02/09 06:02:11;;;;;;;10.52;5.68;;;;;;;-5.02;100.00;97982.97;4996110;28;20410;-67
2022/02/09 06:04:38;;;;;;;15.23;6.50;;;;;;;-4.99;100.00;97973.66;4996790;28;20049;-66
2022/02/09 06:07:04;;;;;;;14.77;6.50;;;;;;;-5.01;100.00;97984.59;4992193;28;20053;-62
2022/02/09 06:09:30;;;;;;;10.07;6.13;;;;;;;-4.97;100.00;97984.94;4999316;28;20037;-66
2022/02/09 06:12:18;;;;;;;18.25;6.72;;;;;;;-5.01;100.00;97979.25;5001307;28;20038;-63
2022/02/09 06:20:04;;;;;;;12.55;6.32;;;;;;;-4.95;100.00;97985.53;4990507;28;20049;-65
2022/02/09 06:22:30;;;;;;;10.73;6.35;;;;;;;-5.03;100.00;97981.34;4999785;28;20140;-67
2022/02/09 06:24:55;;;;;;;11.10;6.50;;;;;;;-5.09;100.00;97987.63;4988547;28;20192;-68
2022/02/09 06:27:21;;;;;;;12.40;6.60;;;;;;;-5.09;100.00;97998.31;4992471;28;20667;-67
2022/02/09 06:29:48;;;;;;;9.25;6.18;;;;;;;-5.05;100.00;97994.13;4989773;28;20560;-69
2022/02/09 06:32:15;;;;;;;14.30;6.28;;;;;;;-4.83;100.00;97997.00;4989155;28;20048;-67
2022/02/09 06:34:45;;;;;;;17.27;7.85;;;;;;;-4.59;100.00;98004.16;4956188;28;20082;-68
2022/02/09 06:39:45;;;;;;;11.00;6.10;;;;;;;-4.31;100.00;98014.09;4983496;28;20482;-67
2022/02/09 06:42:11;;;;;;;13.27;6.13;;;;;;;-4.38;100.00;98010.72;4995194;28;20050;-68
2022/02/09 06:44:36;;;;;;;7.75;5.30;;;;;;;-4.40;100.00;98010.16;4998840;28;20168;-67
2022/02/09 06:47:02;;;;;;;9.63;5.85;;;;;;;-4.59;100.00;98006.84;4992119;28;20089;-67
2022/02/09 06:49:30;;;;;;;10.75;6.10;;;;;;;-4.76;100.00;98006.75;5003187;28;20046;-66
2022/02/09 06:51:56;;;;;;;11.80;6.00;;;;;;;-4.90;100.00;98001.66;4996951;28;20491;-65
2022/02/09 06:54:30;;;;;;;10.98;6.28;;;;;;;-4.95;100.00;98006.91;4984720;28;20055;-65
2022/02/09 06:57:03;;;;;;;17.48;6.50;;;;;;;-4.94;100.00;98007.72;4997769;28;20069;-66
2022/02/09 06:59:29;;;;;;;12.70;7.38;;;;;;;-4.83;100.00;98005.00;4992008;28;20046;-66
2022/02/09 07:02:02;;;;;;;10.90;6.82;;;;;;;-4.87;100.00;98013.75;4991695;28;20046;-66
2022/02/09 07:04:28;;;;;;;13.60;6.50;;;;;;;-4.89;100.00;98007.84;4995833;28;20046;-66
2022/02/09 07:06:54;;;;;;;14.38;6.47;;;;;;;-4.96;100.00;97999.94;5000108;28;20115;-65
2022/02/09 07:09:19;;;;;;;13.80;7.30;;;;;;;-5.01;100.00;97999.81;4985156;28;20069;-64
2022/02/09 07:11:45;;;;;;;11.98;7.00;;;;;;;-5.13;100.00;97999.84;4999022;28;20407;-64
2022/02/09 07:14:10;;;;;;;11.75;6.28;;;;;;;-5.24;100.00;97998.81;4981667;28;20050;-64
2022/02/09 07:16:37;;;;;;;13.10;6.72;;;;;;;-5.18;100.00;98005.88;4978455;28;20062;-64
2022/02/09 07:19:07;;;;;;;11.18;6.20;;;;;;;-4.81;100.00;98005.63;4987389;28;20249;-65
2022/02/09 07:21:33;;;;;;;10.05;6.65;;;;;;;-4.39;100.00;98009.09;4998440;28;20123;-65
2022/02/09 07:24:00;;;;;;;12.98;7.25;;;;;;;-3.92;100.00;98007.03;4985068;28;20416;-64
2022/02/09 07:26:41;;;;;;;16.52;7.30;;;;;;;-3.09;100.00;98009.97;4991099;28;20111;-65
2022/02/09 07:29:07;;;;;;;13.80;7.18;;;;;;;-2.17;100.00;98009.53;4987396;28;20057;-66
2022/02/09 07:31:33;;;;;;;13.85;7.22;;;;;;;-2.30;100.00;98010.72;4992511;28;20409;-66
2022/02/09 07:33:59;;;;;;;11.45;6.05;;;;;;;-1.82;100.00;98002.88;4997625;28;20057;-66
2022/02/09 07:36:31;;;;;;;10.88;5.93;;;;;;;-0.88;100.00;98014.91;4985230;28;20179;-66
2022/02/09 07:38:59;;;;;;;14.30;5.78;;;;;;;0.13;95.38;98012.91;4988594;28;20042;-67
2022/02/09 07:41:24;;;;;;;11.45;5.45;;;;;;;1.03;90.32;98024.25;4993763;28;20133;-65
2022/02/09 07:44:04;;;;;;;15.23;4.72;;;;;;;1.82;84.81;98011.03;4984193;28;20254;-65
2022/02/09 07:54:10;;;;;;;11.48;5.25;;;;;;;4.62;64.03;98007.69;4976128;28;20046;-65
2022/02/09 07:56:42;;;;;;;11.15;4.03;;;;;;;3.77;70.09;98002.09;4982737;28;20046;-67
2022/02/09 07:59:11;;;;;;;11.00;5.82;;;;;;;3.95;68.65;98005.13;4997823;28;20134;-68
2022/02/09 08:01:38;;;;;;;13.75;10.48;;;;;;;2.04;75.82;98003.38;5007500;28;20048;-68
2022/02/09 08:04:04;;;;;;;16.45;12.32;;;;;;;1.09;85.17;98001.56;5002095;28;20074;-67
2022/02/09 08:06:30;;;;;;;11.32;4.93;;;;;;;1.01;85.27;97997.53;5006019;28;20061;-67
2022/02/09 08:09:00;;;;;;;10.50;4.43;;;;;;;1.60;81.74;97997.91;4981619;28;20432;-67
2022/02/09 08:30:07;;;;;;;11.70;5.00;;;;;;;4.07;72.62;97991.97;4980991;28;20042;-67
2022/02/09 08:32:42;;;;;;;11.98;7.45;;;;;;;4.16;70.15;98000.22;4981080;28;20043;-67
2022/02/09 08:35:10;;;;;;;32.05;22.52;;;;;;;3.93;73.38;97996.50;4976790;28;20506;-67
2022/02/09 08:37:35;;;;;;;29.30;16.92;;;;;;;4.07;71.73;97994.66;4989092;28;20046;-66
2022/02/09 08:40:02;;;;;;;23.20;15.90;;;;;;;4.07;74.38;97991.13;4984926;28;20072;-65
2022/02/09 08:42:27;;;;;;;13.98;9.75;;;;;;;4.45;71.09;97989.25;4998455;28;20048;-66
2022/02/09 08:44:53;;;;;;;10.30;5.45;;;;;;;5.00;70.79;97996.75;4992458;28;20572;-65
2022/02/09 08:47:20;;;;;;;8.30;4.10;;;;;;;5.35;66.86;97994.50;4990523;28;20046;-65
2022/02/09 08:49:46;;;;;;;7.18;4.72;;;;;;;5.73;66.06;97981.50;5011229;28;20376;-65
2022/02/09 08:52:12;;;;;;;6.78;3.70;;;;;;;6.65;64.23;97977.88;4991034;28;20042;-64
2022/02/09 08:54:37;;;;;;;12.63;4.03;;;;;;;7.20;59.73;97974.03;4989608;28;20116;-66
2022/02/09 08:57:09;;;;;;;9.02;3.63;;;;;;;7.79;57.12;97980.03;4995858;28;20096;-67
2022/02/09 08:59:35;;;;;;;6.45;3.75;;;;;;;8.88;55.41;97983.81;4983896;28;20057;-65
2022/02/09 09:02:04;;;;;;;11.35;3.88;;;;;;;8.03;55.56;97986.97;4983777;28;20049;-65
2022/02/09 09:07:33;;;;;;;7.78;4.38;;;;;;;8.52;56.30;97971.31;4986542;28;20058;-65
2022/02/09 09:18:48;;;;;;;17.77;4.78;;;;;;;10.05;55.02;97958.88;4988233;28;20403;-64
2022/02/09 10:35:20;;;;;;;13.88;5.60;;;;;;;10.06;49.84;97944.06;5010345;28;20083;-64
2022/02/09 10:37:46;;;;;;;12.98;6.40;;;;;;;10.75;50.44;97943.84;5007638;28;20041;-65
2022/02/09 10:40:46;;;;;;;12.13;5.75;;;;;;;9.82;51.92;97936.50;5003077;28;20038;-64
2022/02/09 10:43:31;;;;;;;9.07;5.40;;;;;;;10.04;50.76;97935.38;5006257;28;20034;-66
2022/02/09 10:46:10;;;;;;;11.52;5.60;;;;;;;10.58;47.47;97934.66;5008434;28;20084;-64
2022/02/09 10:48:45;;;;;;;17.05;8.70;;;;;;;10.61;48.32;97927.72;4984988;28;20046;-68
2022/02/09 10:54:11;;;;;;;8.80;5.37;;;;;;;9.31;51.23;97909.09;4999648;28;20046;-67
2022/02/09 10:57:08;;;;;;;9.02;5.85;;;;;;;10.36;48.66;97910.38;4989701;28;20292;-66
2022/02/09 10:59:37;;;;;;;11.80;5.47;;;;;;;10.27;49.58;97904.94;4995488;28;20049;-65
2022/02/09 11:02:04;;;;;;;11.82;5.22;;;;;;;10.87;46.96;97898.09;5020450;28;20120;-67
2022/02/09 11:04:32;;;;;;;10.75;5.90;;;;;;;10.10;48.23;97889.44;4988145;28;20512;-65
2022/02/09 11:06:59;;;;;;;10.27;5.22;;;;;;;10.81;46.69;97890.44;5003786;28;20041;-66
2022/02/09 11:09:25;;;;;;;10.25;6.50;;;;;;;10.31;46.16;97897.69;5002573;28;20045;-66
2022/02/09 11:11:53;;;;;;;9.25;5.47;;;;;;;10.70;46.35;97898.28;5006743;28;20057;-66
2022/02/09 11:14:24;;;;;;;11.15;5.53;;;;;;;10.87;46.36;97892.59;5008833;28;20045;-67
2022/02/09 11:17:10;;;;;;;9.98;5.40;;;;;;;11.29;46.28;97891.66;5004848;28;20570;-66
2022/02/09 11:19:38;;;;;;;9.93;5.38;;;;;;;11.70;45.49;97897.25;5000813;28;20038;-66
2022/02/09 11:22:11;;;;;;;10.85;5.32;;;;;;;11.24;44.66;97886.41;5007311;28;20081;-69
2022/02/09 11:24:45;;;;;;;8.43;4.80;;;;;;;11.22;44.49;97883.22;5002552;28;20048;-66
2022/02/09 11:27:32;;;;;;;7.88;4.47;;;;;;;11.32;43.40;97873.72;5012750;28;20046;-65
2022/02/09 11:30:20;;;;;;;11.80;5.00;;;;;;;10.70;43.53;97881.84;5018479;28;20042;-64
2022/02/09 11:33:02;;;;;;;9.35;4.60;;;;;;;11.21;42.96;97863.19;4999511;28;20053;-65
2022/02/09 11:36:02;;;;;;;11.55;4.05;;;;;;;11.96;41.80;97870.25;5013561;28;20045;-66
2022/02/09 11:38:36;;;;;;;8.38;3.92;;;;;;;9.65;44.23;97863.56;5009877;28;20046;-65
2022/02/09 11:41:13;;;;;;;6.93;3.95;;;;;;;8.71;48.04;97858.97;4979156;28;20073;-67
2022/02/09 11:43:44;;;;;;;7.47;3.75;;;;;;;10.19;42.12;97849.13;4994509;28;20054;-66
2022/02/09 12:00:12;;;;;;;10.03;3.70;;;;;;;11.90;40.80;97826.88;5012711;28;20046;-68
2022/02/09 12:16:50;;;;;;;9.30;4.25;;;;;;;14.79;33.38;97800.22;5000404;28;20052;-66
2022/02/09 12:19:27;;;;;;;14.18;5.80;;;;;;;14.51;34.84;97791.06;5003072;28;20398;-65
2022/02/09 12:22:00;;;;;;;10.93;4.20;;;;;;;14.03;33.72;97801.53;5005697;28;20112;-67
2022/02/09 12:24:32;;;;;;;10.88;4.55;;;;;;;12.73;35.28;97789.53;4997552;28;20054;-65
2022/02/09 12:27:08;;;;;;;8.15;4.00;;;;;;;13.98;34.95;97793.56;5009148;28;20038;-66
2022/02/09 12:29:39;;;;;;;11.38;4.00;;;;;;;13.35;35.03;97798.09;5011246;28;20044;-67
2022/02/09 12:32:13;;;;;;;12.30;5.18;;;;;;;13.42;35.42;97786.47;5008543;28;20041;-67
2022/02/09 12:35:19;;;;;;;6.82;3.67;;;;;;;13.49;36.98;97775.63;5011106;28;20053;-67
2022/02/09 12:37:48;;;;;;;7.05;3.75;;;;;;;13.67;35.84;97777.97;4925475;29;20048;-66
2022/02/09 12:40:19;;;;;;;7.25;3.88;;;;;;;12.98;38.38;97776.41;4914786;29;20073;-65
2022/02/09 12:42:53;;;;;;;7.68;4.03;;;;;;;13.11;38.04;97777.09;4928822;28;20115;-66
2022/02/09 12:45:21;;;;;;;10.68;4.38;;;;;;;13.14;36.82;97778.31;4966252;28;20503;-66
2022/02/09 12:47:52;;;;;;;9.70;4.00;;;;;;;12.93;36.73;97765.66;4992307;28;20050;-66
2022/02/09 12:50:26;;;;;;;6.95;3.80;;;;;;;12.98;37.94;97761.84;5007672;28;20046;-66
2022/02/09 12:52:54;;;;;;;6.20;3.58;;;;;;;11.78;38.61;97770.88;4999022;28;20073;-66
2022/02/09 12:55:21;;;;;;;9.95;3.78;;;;;;;12.62;39.03;97758.22;5006981;28;20038;-65
2022/02/09 12:58:08;;;;;;;8.55;3.42;;;;;;;13.27;36.81;97746.81;5028649;28;20140;-65
2022/02/09 13:00:44;;;;;;;7.78;3.85;;;;;;;13.52;35.47;97744.63;5006362;28;20045;-66
2022/02/09 13:03:13;;;;;;;13.27;5.50;;;;;;;13.99;34.88;97736.50;4956487;28;20038;-66
2022/02/09 13:06:00;;;;;;;13.20;5.75;;;;;;;13.87;34.48;97743.00;4998270;28;20042;-67
2022/02/09 13:08:30;;;;;;;10.52;4.85;;;;;;;14.41;34.15;97730.22;4976802;28;20480;-69
2022/02/09 13:11:32;;;;;;;5.32;2.85;;;;;;;13.74;34.56;97732.13;5003233;28;20053;-69
2022/02/09 13:14:04;;;;;;;9.75;3.42;;;;;;;13.99;33.79;97734.56;4983201;28;20415;-66
2022/02/09 13:17:20;;;;;;;9.18;3.00;;;;;;;14.31;32.14;97724.16;4970523;28;20781;-68
2022/02/09 13:19:44;;;;;;;12.52;3.10;;;;;;;13.98;32.96;97721.94;4979357;28;20606;-66
2022/02/09 13:53:56;;;;;;;6.43;2.35;;;;;;;11.50;34.88;97699.50;4987204;28;20052;-66
2022/02/09 14:07:57;;;;;;;4.75;1.73;;;;;;;9.46;39.43;97667.09;4979053;28;20534;-67
2022/02/09 14:16:02;;;;;;;2.63;1.50;;;;;;;10.25;38.56;97658.84;4968164;28;20149;-71
2022/02/09 14:48:26;;;;;;;5.05;1.70;;;;;;;10.52;38.25;97649.19;4981068;28;20044;-68
2022/02/09 14:55:57;;;;;;;3.05;1.42;;;;;;;10.23;38.44;97643.91;4976107;28;20049;-66
2022/02/09 14:58:25;;;;;;;2.17;1.40;;;;;;;10.19;38.78;97634.78;4962245;28;21045;-65
2022/02/09 15:01:07;;;;;;;2.28;1.25;;;;;;;10.35;37.88;97643.13;4969445;28;20046;-65
2022/02/09 15:09:21;;;;;;;2.97;1.02;;;;;;;10.33;37.56;97636.09;4978375;28;20042;-66
2022/02/09 15:16:45;;;;;;;3.42;1.67;;;;;;;10.10;39.60;97630.22;4973757;28;20058;-67
2022/02/09 15:24:46;;;;;;;5.63;1.70;;;;;;;9.90;39.89;97631.91;4969757;28;20050;-67
2022/02/09 15:27:17;;;;;;;2.83;1.65;;;;;;;10.04;38.65;97639.78;4979932;28;20065;-66
2022/02/09 15:29:43;;;;;;;2.92;1.35;;;;;;;9.95;38.71;97633.59;4980893;28;20136;-66
2022/02/09 15:32:36;;;;;;;2.92;1.52;;;;;;;9.87;39.54;97632.56;4980182;28;20047;-68
2022/02/09 15:35:11;;;;;;;4.50;1.20;;;;;;;9.73;39.84;97624.66;4982188;28;20471;-64
2022/02/09 15:37:46;;;;;;;15.45;3.90;;;;;;;9.42;40.40;97622.41;4988282;28;20121;-68
2022/02/09 15:40:24;;;;;;;7.82;2.63;;;;;;;9.19;41.10;97630.19;4973557;28;20129;-64
2022/02/09 16:23:14;;;;;;;6.35;2.13;;;;;;;7.58;44.57;97591.84;4982808;28;20061;-67
2022/02/09 16:37:20;;;;;;;16.67;4.28;;;;;;;6.57;50.93;97592.09;4930421;29;20047;-66
2022/02/09 16:45:00;;;;;;;8.75;4.20;;;;;;;6.00;51.90;97587.50;5007663;28;20043;-66
2022/02/09 16:52:25;;;;;;;6.40;3.15;;;;;;;5.53;51.91;97585.19;4984109;28;20042;-63
2022/02/09 17:19:03;;;;;;;18.52;5.82;;;;;;;4.46;59.88;97577.69;5008088;28;20103;-65
2022/02/09 17:21:31;;;;;;;16.27;8.27;;;;;;;4.24;59.65;97587.38;5006274;28;20045;-63
2022/02/09 17:24:02;;;;;;;19.10;6.63;;;;;;;4.13;60.67;97591.41;5007917;28;20140;-64
2022/02/09 17:26:29;;;;;;;15.63;6.05;;;;;;;3.98;62.77;97597.91;5011256;28;20041;-66
2022/02/09 17:29:03;;;;;;;16.02;5.50;;;;;;;3.82;62.84;97592.00;5013612;28;20093;-65
2022/02/09 17:31:38;;;;;;;16.17;4.82;;;;;;;3.81;64.82;97587.69;5010092;28;20093;-65
2022/02/09 17:37:14;;;;;;;12.40;4.28;;;;;;;3.56;66.19;97578.13;4993756;28;20050;-67
2022/02/09 17:53:30;;;;;;;11.30;3.63;;;;;;;3.13;70.77;97584.56;4972263;28;20050;-65
2022/02/09 17:56:16;;;;;;;18.55;7.13;;;;;;;2.85;72.13;97592.59;5005251;28;20048;-66
2022/02/09 17:58:47;;;;;;;14.43;6.28;;;;;;;2.80;72.86;97583.75;5011492;28;20041;-65
2022/02/09 18:01:17;;;;;;;17.00;6.50;;;;;;;2.79;74.21;97591.06;5006741;28;20045;-66
2022/02/09 18:03:43;;;;;;;16.23;8.63;;;;;;;2.71;76.40;97580.91;5008113;28;20145;-66
2022/02/09 18:09:09;;;;;;;20.45;9.65;;;;;;;2.93;76.12;97580.28;4980425;28;20045;-67
2022/02/09 18:31:12;;;;;;;18.58;10.68;;;;;;;2.14;80.33;97582.78;4956824;28;20043;-65
2022/02/09 18:34:03;;;;;;;15.18;7.53;;;;;;;2.01;81.79;97576.97;4932486;28;20046;-66
2022/02/09 18:42:45;;;;;;;20.77;8.27;;;;;;;1.84;84.33;97573.97;4998668;28;20077;-66
2022/02/09 18:44:28;;;;;;;10.63;4.97;;;;;;;1.80;84.45;97572.91;4987161;28;20442;-66
2022/02/09 19:03:06;;;;;;;15.70;6.20;;;;;;;1.45;88.08;97577.63;5014715;28;20106;-66
2022/02/09 19:05:43;;;;;;;14.27;6.20;;;;;;;1.31;88.20;97581.00;5009983;28;20046;-65
2022/02/09 19:27:29;;;;;;;16.15;8.30;;;;;;;0.84;94.46;97584.38;5002970;28;20054;-65
2022/02/09 19:48:22;;;;;;;19.65;9.25;;;;;;;-0.16;100.00;97581.72;4987113;28;20118;-67
2022/02/09 19:51:37;;;;;;;19.27;9.45;;;;;;;-0.30;100.00;97581.47;4984970;28;20046;-67
2022/02/09 19:53:41;;;;;;;17.77;8.40;;;;;;;-0.24;100.00;97584.97;4977597;28;20074;-67
2022/02/09 19:56:19;;;;;;;19.23;8.77;;;;;;;-0.11;100.00;97581.69;4976441;28;20049;-67
2022/02/09 19:58:53;;;;;;;19.13;9.35;;;;;;;-0.01;100.00;97580.84;4978200;28;20038;-67
2022/02/09 20:01:20;;;;;;;14.88;8.50;;;;;;;-0.04;100.00;97576.81;4973258;28;20385;-64
2022/02/09 20:03:47;;;;;;;14.88;8.75;;;;;;;0.03;100.00;97576.50;4992846;28;20036;-67
2022/02/09 20:06:13;;;;;;;17.30;8.80;;;;;;;0.10;100.00;97576.19;4996624;28;20099;-69
2022/02/09 20:08:39;;;;;;;17.65;8.52;;;;;;;0.12;100.00;97572.13;4997698;28;20049;-67
2022/02/09 20:11:05;;;;;;;17.10;8.43;;;;;;;0.10;100.00;97574.31;4995891;28;20061;-69
2022/02/09 20:13:31;;;;;;;17.73;8.65;;;;;;;0.05;100.00;97576.22;4990527;28;20050;-66
2022/02/09 20:15:58;;;;;;;18.27;8.77;;;;;;;0.07;100.00;97577.53;4992875;28;20482;-67
2022/02/09 20:18:24;;;;;;;17.27;8.52;;;;;;;0.01;100.00;97577.88;4979709;28;20213;-65
2022/02/09 20:20:49;;;;;;;14.38;8.02;;;;;;;-0.10;100.00;97569.03;4993288;28;20050;-66
2022/02/09 20:23:15;;;;;;;15.32;9.38;;;;;;;-0.43;100.00;97577.47;4996473;28;20550;-67
2022/02/09 20:25:40;;;;;;;16.27;9.25;;;;;;;-0.78;100.00;97571.09;5001730;28;20136;-66
2022/02/09 20:28:07;;;;;;;19.25;10.35;;;;;;;-0.82;100.00;97574.59;4989459;28;20046;-66
2022/02/09 20:30:39;;;;;;;19.73;10.05;;;;;;;-0.75;100.00;97571.66;5001867;28;20395;-65
2022/02/09 20:33:09;;;;;;;18.52;9.18;;;;;;;-0.63;100.00;97578.34;4998459;28;20037;-68
2022/02/09 20:35:34;;;;;;;22.73;9.95;;;;;;;-0.55;100.00;97566.22;5001837;28;20364;-66
2022/02/09 20:38:00;;;;;;;19.23;10.07;;;;;;;-0.50;100.00;97576.97;5011681;28;20046;-64
2022/02/09 20:40:34;;;;;;;18.92;8.77;;;;;;;-0.45;100.00;97582.34;4990599;28;20046;-67
2022/02/09 20:43:02;;;;;;;20.48;10.40;;;;;;;-0.62;100.00;97579.94;5000010;28;20038;-66
2022/02/09 20:45:36;;;;;;;17.67;9.63;;;;;;;-0.71;100.00;97580.78;5007569;28;20042;-66
2022/02/09 20:48:06;;;;;;;22.77;12.00;;;;;;;-0.78;100.00;97583.72;4999487;28;20048;-66
2022/02/09 20:50:34;;;;;;;30.10;16.25;;;;;;;-0.88;100.00;97583.75;4995932;28;20492;-67
2022/02/09 20:53:00;;;;;;;24.30;13.25;;;;;;;-0.99;100.00;97582.94;4988678;28;20049;-67
2022/02/09 20:55:27;;;;;;;22.30;11.45;;;;;;;-0.92;100.00;97577.28;4955764;28;1144668;-66
2022/02/09 20:57:53;;;;;;;26.67;12.38;;;;;;;-0.71;100.00;97580.78;5002764;28;20045;-66
2022/02/09 21:00:30;;;;;;;31.55;14.07;;;;;;;-0.68;100.00;97578.34;4977670;28;20039;-66
2022/02/09 21:04:02;;;;;;;28.80;13.93;;;;;;;-0.80;100.00;97584.00;5001318;28;20050;-66
2022/02/09 21:14:13;;;;;;;22.58;10.38;;;;;;;-1.32;100.00;97586.97;4997587;28;20069;-68
2022/02/09 21:21:47;;;;;;;16.48;9.68;;;;;;;-1.44;100.00;97588.06;5006782;28;20395;-68
2022/02/09 21:59:00;;;;;;;24.00;10.10;;;;;;;-1.21;100.00;97586.69;5000134;28;20386;-67
2022/02/09 22:28:31;;;;;;;19.45;10.38;;;;;;;-1.48;100.00;97565.47;4988407;28;20152;-66
2022/02/09 22:55:23;;;;;;;23.40;11.07;;;;;;;-2.56;100.00;97545.53;4985415;28;20097;-66
2022/02/09 22:57:55;;;;;;;22.75;10.15;;;;;;;-2.63;100.00;97543.13;4987063;28;20069;-66
2022/02/09 23:00:56;;;;;;;21.83;11.35;;;;;;;-2.64;100.00;97544.19;4980612;28;20042;-65
2022/02/09 23:16:42;;;;;;;22.23;9.77;;;;;;;-2.75;100.00;97539.84;4985895;28;20054;-69
